createdAt,value
2024-01-05T00:02:23.690Z,7.08
2024-01-05T00:04:50.336Z,6.91
2024-01-05T00:07:17.083Z,6.99
2024-01-05T00:09:43.688Z,6.87
2024-01-05T00:12:10.358Z,6.98
2024-01-05T00:14:40.076Z,7.02
2024-01-05T00:17:06.919Z,7.20
2024-01-05T00:19:33.823Z,6.89
2024-01-05T00:22:00.674Z,6.76
2024-01-05T00:24:27.481Z,6.59
2024-01-05T00:26:54.434Z,6.51
2024-01-05T00:29:21.124Z,6.41
2024-01-05T00:31:47.879Z,6.22
2024-01-05T00:34:15.593Z,5.63
2024-01-05T00:36:42.909Z,6.22
2024-01-05T00:39:09.828Z,6.34
2024-01-05T00:41:36.502Z,5.96
2024-01-05T00:44:03.134Z,6.20
2024-01-05T00:46:29.865Z,6.40
2024-01-05T00:48:57.080Z,6.48
2024-01-05T00:51:23.888Z,6.19
2024-01-05T00:53:50.607Z,6.55
2024-01-05T00:56:17.422Z,6.33
2024-01-05T00:58:44.105Z,6.64
2024-01-05T01:01:10.834Z,6.65
2024-01-05T01:03:37.689Z,6.47
2024-01-05T01:06:04.752Z,6.34
2024-01-05T01:08:31.470Z,6.75
2024-01-05T01:10:58.088Z,7.09
2024-01-05T01:13:24.742Z,6.56
2024-01-05T01:15:51.475Z,6.33
2024-01-05T01:18:18.232Z,6.55
2024-01-05T01:20:45.106Z,6.85
2024-01-05T01:23:11.850Z,6.89
2024-01-05T01:25:39.600Z,6.73
2024-01-05T01:28:06.322Z,6.45
2024-01-05T01:30:33.044Z,6.21
2024-01-05T01:32:59.883Z,6.23
2024-01-05T01:35:26.706Z,6.44
2024-01-05T01:37:53.403Z,6.63
2024-01-05T01:40:20.067Z,6.51
2024-01-05T01:42:47.074Z,6.42
2024-01-05T01:45:14.495Z,6.38
2024-01-05T01:47:42.663Z,6.14
2024-01-05T01:50:10.497Z,6.11
2024-01-05T01:52:43.624Z,6.36
2024-01-05T01:55:11.101Z,6.24
2024-01-05T01:57:39.097Z,6.18
2024-01-05T02:00:07.690Z,6.19
2024-01-05T02:02:36.018Z,6.18
2024-01-05T02:05:03.338Z,6.16
2024-01-05T02:07:29.997Z,6.26
2024-01-05T02:09:56.648Z,5.71
2024-01-05T02:12:23.729Z,6.11
2024-01-05T02:14:50.385Z,5.94
2024-01-05T02:17:30.215Z,5.49
2024-01-05T02:20:00.004Z,5.52
2024-01-05T02:22:31.151Z,5.69
2024-01-05T02:24:58.748Z,5.30
2024-01-05T02:27:26.475Z,5.36
2024-01-05T02:29:53.238Z,5.42
2024-01-05T02:32:19.934Z,5.18
2024-01-05T02:34:46.654Z,5.00
2024-01-05T02:37:13.449Z,5.25
2024-01-05T02:39:40.270Z,5.08
2024-01-05T02:42:07.057Z,4.97
2024-01-05T02:44:33.709Z,4.67
2024-01-05T02:47:00.344Z,4.92
2024-01-05T02:49:27.016Z,4.83
2024-01-05T02:51:53.769Z,4.75
2024-01-05T02:54:20.444Z,4.61
2024-01-05T02:56:47.097Z,4.72
2024-01-05T02:59:14.776Z,4.77
2024-01-05T03:01:41.390Z,4.50
2024-01-05T03:04:08.902Z,4.33
2024-01-05T03:06:35.709Z,4.24
2024-01-05T03:09:02.491Z,3.89
2024-01-05T03:11:29.120Z,3.96
2024-01-05T03:13:55.718Z,3.66
2024-01-05T03:16:22.369Z,3.61
2024-01-05T03:18:49.174Z,3.32
2024-01-05T03:21:16.035Z,3.34
2024-01-05T03:23:42.761Z,3.22
2024-01-05T03:26:10.700Z,3.04
2024-01-05T03:28:39.441Z,2.90
2024-01-05T03:31:11.278Z,2.94
2024-01-05T03:33:38.072Z,2.69
2024-01-05T03:36:05.095Z,2.66
2024-01-05T03:38:31.752Z,2.75
2024-01-05T03:40:58.419Z,2.68
2024-01-05T03:43:25.358Z,2.55
2024-01-05T03:45:51.996Z,2.40
2024-01-05T03:48:18.836Z,2.47
2024-01-05T03:50:45.647Z,2.41
2024-01-05T03:53:12.922Z,2.43
2024-01-05T03:55:39.578Z,2.42
2024-01-05T03:58:07.562Z,2.50
2024-01-05T04:00:34.506Z,2.10
2024-01-05T04:03:01.410Z,2.41
2024-01-05T04:05:28.224Z,2.08
2024-01-05T04:07:54.876Z,2.17
2024-01-05T04:10:21.514Z,2.09
2024-01-05T04:12:48.505Z,2.15
2024-01-05T04:15:15.381Z,2.43
2024-01-05T04:17:42.226Z,2.03
2024-01-05T04:20:09.955Z,2.26
2024-01-05T04:22:36.706Z,2.16
2024-01-05T04:25:03.847Z,2.13
2024-01-05T04:27:30.604Z,2.07
2024-01-05T04:29:57.510Z,2.18
2024-01-05T04:32:25.323Z,2.04
2024-01-05T04:34:51.983Z,2.09
2024-01-05T04:37:18.635Z,2.03
2024-01-05T04:39:45.326Z,2.19
2024-01-05T04:42:13.120Z,2.05
2024-01-05T04:44:40.023Z,2.07
2024-01-05T04:47:06.734Z,1.98
2024-01-05T04:49:35.259Z,2.20
2024-01-05T04:52:02.254Z,2.15
2024-01-05T04:54:29.130Z,2.18
2024-01-05T04:56:55.824Z,2.07
2024-01-05T04:59:23.492Z,2.13
2024-01-05T05:01:50.281Z,2.11
2024-01-05T05:04:19.014Z,2.16
2024-01-05T05:06:45.826Z,2.17
2024-01-05T05:09:13.867Z,1.99
2024-01-05T05:11:43.791Z,2.15
2024-01-05T05:14:10.937Z,2.20
2024-01-05T05:16:37.694Z,2.24
2024-01-05T05:19:05.379Z,2.01
2024-01-05T05:21:32.778Z,2.11
2024-01-05T05:23:59.576Z,1.82
2024-01-05T05:26:26.372Z,1.99
2024-01-05T05:28:53.020Z,2.04
2024-01-05T05:31:19.907Z,1.98
2024-01-05T05:33:46.761Z,2.00
2024-01-05T05:36:13.469Z,2.06
2024-01-05T05:38:40.146Z,2.15
2024-01-05T05:41:06.816Z,2.10
2024-01-05T05:43:33.447Z,2.20
2024-01-05T05:46:00.134Z,2.30
2024-01-05T05:48:26.856Z,2.08
2024-01-05T05:50:53.652Z,2.17
2024-01-05T05:53:20.776Z,2.22
2024-01-05T05:55:47.486Z,2.25
2024-01-05T05:58:14.157Z,2.26
2024-01-05T06:00:40.980Z,2.48
2024-01-05T06:03:10.039Z,2.23
2024-01-05T06:05:38.258Z,2.38
2024-01-05T06:08:05.352Z,2.21
2024-01-05T06:10:32.044Z,1.99
2024-01-05T06:12:58.687Z,1.97
2024-01-05T06:15:25.370Z,2.13
2024-01-05T06:17:52.747Z,2.10
2024-01-05T06:20:19.468Z,2.08
2024-01-05T06:22:46.167Z,2.08
2024-01-05T06:25:12.918Z,2.10
2024-01-05T06:27:39.921Z,1.99
2024-01-05T06:30:08.207Z,2.16
2024-01-05T06:32:34.904Z,2.35
2024-01-05T06:35:01.543Z,2.28
2024-01-05T06:37:30.262Z,2.21
2024-01-05T06:39:57.385Z,2.24
2024-01-05T06:42:24.073Z,2.22
2024-01-05T06:44:51.540Z,2.10
2024-01-05T06:47:18.200Z,2.20
2024-01-05T06:49:44.930Z,2.01
2024-01-05T06:52:11.644Z,1.82
2024-01-05T06:54:38.849Z,2.03
2024-01-05T06:57:08.235Z,1.86
2024-01-05T06:59:37.542Z,1.67
2024-01-05T07:02:05.013Z,1.44
2024-01-05T07:04:31.817Z,1.49
2024-01-05T07:06:58.476Z,1.56
2024-01-05T07:09:26.120Z,1.52
2024-01-05T07:11:53.553Z,1.58
2024-01-05T07:14:20.263Z,1.41
2024-01-05T07:16:49.024Z,1.49
2024-01-05T07:19:16.053Z,1.72
2024-01-05T07:21:51.180Z,1.70
2024-01-05T07:24:18.849Z,1.77
2024-01-05T07:26:45.880Z,1.34
2024-01-05T07:29:12.852Z,1.24
2024-01-05T07:31:39.469Z,0.92
2024-01-05T07:34:06.754Z,0.83
2024-01-05T07:36:33.642Z,0.99
2024-01-05T07:39:00.714Z,0.86
2024-01-05T07:41:30.554Z,0.89
2024-01-05T07:43:57.199Z,0.80
2024-01-05T07:46:26.866Z,0.94
2024-01-05T07:48:53.874Z,0.88
2024-01-05T07:51:20.764Z,0.88
2024-01-05T07:53:49.796Z,0.81
2024-01-05T07:56:20.198Z,0.68
2024-01-05T07:58:47.211Z,0.76
2024-01-05T08:01:21.792Z,0.64
2024-01-05T08:03:49.511Z,0.70
2024-01-05T08:06:21.064Z,0.69
2024-01-05T08:08:49.098Z,0.66
2024-01-05T08:11:15.896Z,0.59
2024-01-05T08:13:43.708Z,0.63
2024-01-05T08:16:11.220Z,0.52
2024-01-05T08:18:39.016Z,0.62
2024-01-05T08:21:06.212Z,0.59
2024-01-05T08:23:33.300Z,0.57
2024-01-05T08:26:00.522Z,0.56
2024-01-05T08:28:27.652Z,0.55
2024-01-05T08:30:57.331Z,0.56
2024-01-05T08:33:24.610Z,0.60
2024-01-05T08:35:51.538Z,0.63
2024-01-05T08:38:18.264Z,0.68
2024-01-05T08:40:45.772Z,0.62
2024-01-05T08:43:12.577Z,0.66
2024-01-05T08:45:39.477Z,0.61
2024-01-05T08:48:06.520Z,0.62
2024-01-05T08:50:35.966Z,0.90
2024-01-05T08:53:02.915Z,0.67
2024-01-05T08:55:29.765Z,0.74
2024-01-05T08:57:56.650Z,0.78
2024-01-05T09:00:23.566Z,0.80
2024-01-05T09:02:50.350Z,0.85
2024-01-05T09:05:17.113Z,0.78
2024-01-05T09:07:43.782Z,0.86
2024-01-05T09:10:10.515Z,0.96
2024-01-05T09:12:39.244Z,0.86
2024-01-05T09:15:08.076Z,0.98
2024-01-05T09:17:35.045Z,0.96
2024-01-05T09:20:04.629Z,0.98
2024-01-05T09:22:31.445Z,1.08
2024-01-05T09:24:58.128Z,1.09
2024-01-05T09:27:24.872Z,1.11
2024-01-05T09:29:52.099Z,1.08
2024-01-05T09:32:19.129Z,1.15
2024-01-05T09:34:45.902Z,1.30
2024-01-05T09:37:12.553Z,1.31
2024-01-05T09:39:39.333Z,1.36
2024-01-05T09:42:06.981Z,1.80
2024-01-05T09:44:34.240Z,1.85
2024-01-05T09:47:02.701Z,1.80
2024-01-05T09:49:37.080Z,1.32
2024-01-05T09:52:04.140Z,1.43
2024-01-05T09:54:30.878Z,1.73
2024-01-05T09:56:57.877Z,1.35
2024-01-05T09:59:27.257Z,1.42
2024-01-05T10:01:55.929Z,1.82
2024-01-05T10:04:24.324Z,1.53
2024-01-05T10:07:00.820Z,1.69
2024-01-05T10:09:30.077Z,1.76
2024-01-05T10:11:58.744Z,2.16
2024-01-05T10:14:29.583Z,2.36
2024-01-05T10:17:19.287Z,2.43
2024-01-05T10:19:46.193Z,2.63
2024-01-05T10:22:14.766Z,2.57
2024-01-05T10:24:43.095Z,2.60
2024-01-05T10:27:14.736Z,2.55
2024-01-05T10:29:44.171Z,2.88
2024-01-05T10:32:12.906Z,2.51
2024-01-05T10:34:50.278Z,2.89
2024-01-05T10:37:22.151Z,2.65
2024-01-05T10:39:52.729Z,3.01
2024-01-05T10:42:23.910Z,2.83
2024-01-05T10:44:53.010Z,3.24
2024-01-05T10:47:21.675Z,3.05
2024-01-05T10:49:50.639Z,3.06
2024-01-05T10:52:18.956Z,3.37
2024-01-05T10:54:47.733Z,3.20
2024-01-05T10:57:15.876Z,3.83
2024-01-05T10:59:50.056Z,3.90
2024-01-05T11:02:36.128Z,3.71
2024-01-05T11:05:14.576Z,3.34
2024-01-05T11:07:44.072Z,3.28
2024-01-05T11:10:36.889Z,3.55
2024-01-05T11:13:27.901Z,3.90
2024-01-05T11:16:33.178Z,3.93
2024-01-05T11:19:10.788Z,4.12
2024-01-05T11:21:46.274Z,3.86
2024-01-05T11:24:16.524Z,4.04
2024-01-05T11:26:44.879Z,4.19
2024-01-05T11:29:13.881Z,3.81
2024-01-05T11:31:46.723Z,3.59
2024-01-05T11:34:40.463Z,3.68
2024-01-05T11:37:07.456Z,3.80
2024-01-05T11:39:50.368Z,3.50
2024-01-05T11:42:26.035Z,3.80
2024-01-05T11:44:53.514Z,3.14
2024-01-05T11:47:38.978Z,3.44
2024-01-05T11:50:24.883Z,3.69
2024-01-05T11:53:29.257Z,3.33
2024-01-05T11:56:00.847Z,3.64
2024-01-05T11:58:30.166Z,3.84
2024-01-05T12:00:58.378Z,3.94
2024-01-05T12:03:27.113Z,3.76
2024-01-05T12:06:01.356Z,3.72
2024-01-05T12:08:29.123Z,4.01
2024-01-05T12:11:04.130Z,3.89
2024-01-05T12:13:34.236Z,3.45
2024-01-05T12:16:03.819Z,3.99
2024-01-05T12:18:38.274Z,3.92
2024-01-05T12:21:07.816Z,3.81
2024-01-05T12:23:35.607Z,3.48
2024-01-05T12:26:08.562Z,4.04
2024-01-05T12:28:40.508Z,3.66
2024-01-05T12:31:09.330Z,3.56
2024-01-05T12:33:39.189Z,4.22
2024-01-05T12:36:11.248Z,4.74
2024-01-05T12:38:38.517Z,4.85
2024-01-05T12:41:19.139Z,4.89
2024-01-05T12:43:53.356Z,4.90
2024-01-05T12:46:24.012Z,5.17
2024-01-05T12:48:51.726Z,5.04
2024-01-05T12:51:23.652Z,5.32
2024-01-05T12:54:02.516Z,5.35
2024-01-05T12:56:29.793Z,5.28
2024-01-05T12:58:56.554Z,4.52
2024-01-05T13:01:25.113Z,5.38
2024-01-05T13:04:00.925Z,5.50
2024-01-05T13:06:32.408Z,5.78
2024-01-05T13:08:59.715Z,5.84
2024-01-05T13:11:26.662Z,6.07
2024-01-05T13:13:54.085Z,6.67
2024-01-05T13:16:21.664Z,7.20
2024-01-05T13:18:49.234Z,6.66
2024-01-05T13:21:16.311Z,7.31
2024-01-05T13:23:46.173Z,7.36
2024-01-05T13:26:12.846Z,6.96
2024-01-05T13:28:41.658Z,7.72
2024-01-05T13:31:08.827Z,7.80
2024-01-05T13:33:36.208Z,8.12
2024-01-05T13:36:03.211Z,7.92
2024-01-05T13:38:29.917Z,8.58
2024-01-05T13:40:57.351Z,9.48
2024-01-05T13:43:26.117Z,9.12
2024-01-05T13:45:55.236Z,9.32
2024-01-05T13:48:22.273Z,8.69
2024-01-05T13:50:49.029Z,7.81
2024-01-05T13:53:15.674Z,10.19
2024-01-05T13:55:42.509Z,8.23
2024-01-05T13:58:09.336Z,7.04
2024-01-05T14:00:36.363Z,7.30
2024-01-05T14:03:03.544Z,6.39
2024-01-05T14:05:30.980Z,6.54
2024-01-05T14:07:57.889Z,6.60
2024-01-05T14:10:24.551Z,6.28
2024-01-05T14:12:51.197Z,6.71
2024-01-05T14:15:17.919Z,6.43
2024-01-05T14:17:46.281Z,6.06
2024-01-05T14:20:13.127Z,5.71
2024-01-05T14:22:40.964Z,5.75
2024-01-05T14:25:08.047Z,5.97
2024-01-05T14:27:34.783Z,5.89
2024-01-05T14:30:01.510Z,6.27
2024-01-05T14:32:28.154Z,6.53
2024-01-05T14:34:54.883Z,6.85
2024-01-05T14:37:22.647Z,7.05
2024-01-05T14:39:49.325Z,7.53
2024-01-05T14:42:16.256Z,7.51
2024-01-05T14:44:43.064Z,7.64
2024-01-05T14:47:09.782Z,8.26
2024-01-05T14:49:36.715Z,8.33
2024-01-05T14:52:03.804Z,8.46
2024-01-05T14:54:31.744Z,8.76
2024-01-05T14:56:58.598Z,8.13
2024-01-05T14:59:25.256Z,8.43
2024-01-05T15:01:51.950Z,8.72
2024-01-05T15:04:18.803Z,8.61
2024-01-05T15:06:45.550Z,7.84
2024-01-05T15:09:13.399Z,7.32
2024-01-05T15:11:40.895Z,6.71
2024-01-05T15:14:08.060Z,6.47
2024-01-05T15:16:42.085Z,6.57
2024-01-05T15:19:09.143Z,6.46
2024-01-05T15:21:36.145Z,6.01
2024-01-05T15:24:04.065Z,6.67
2024-01-05T15:26:31.044Z,6.54
2024-01-05T15:29:02.935Z,6.07
2024-01-05T15:31:30.104Z,5.71
2024-01-05T15:33:57.373Z,5.94
2024-01-05T15:36:24.827Z,5.70
2024-01-05T15:38:52.600Z,5.23
2024-01-05T15:41:20.447Z,5.41
2024-01-05T15:43:48.856Z,5.63
2024-01-05T15:46:17.810Z,5.78
2024-01-05T15:48:44.825Z,5.68
2024-01-05T15:51:16.052Z,4.99
2024-01-05T15:53:43.978Z,4.20
2024-01-05T15:56:11.267Z,4.55
2024-01-05T15:58:39.469Z,4.16
2024-01-05T16:01:07.109Z,3.93
2024-01-05T16:03:34.086Z,3.99
2024-01-05T16:06:01.057Z,4.06
2024-01-05T16:08:28.951Z,4.39
2024-01-05T16:10:55.899Z,4.31
2024-01-05T16:13:22.608Z,4.81
2024-01-05T16:15:49.356Z,4.73
2024-01-05T16:18:16.416Z,5.12
2024-01-05T16:20:46.554Z,5.37
2024-01-05T16:23:13.452Z,5.53
2024-01-05T16:25:43.750Z,5.37
2024-01-05T16:28:10.392Z,5.73
2024-01-05T16:30:37.486Z,6.00
2024-01-05T16:33:05.050Z,5.91
2024-01-05T16:35:31.959Z,5.42
2024-01-05T16:37:58.598Z,4.77
2024-01-05T16:40:25.401Z,3.54
2024-01-05T16:42:52.070Z,3.08
2024-01-05T16:45:18.754Z,3.10
2024-01-05T16:47:45.474Z,2.87
2024-01-05T16:50:12.387Z,3.01
2024-01-05T16:52:39.050Z,3.43
2024-01-05T16:55:06.882Z,3.75
2024-01-05T16:57:33.655Z,3.89
2024-01-05T17:00:00.400Z,4.23
2024-01-05T17:02:27.136Z,4.35
2024-01-05T17:04:54.238Z,4.40
2024-01-05T17:07:21.043Z,4.82
2024-01-05T17:09:47.844Z,5.19
2024-01-05T17:12:14.666Z,6.08
2024-01-05T17:14:41.521Z,6.76
2024-01-05T17:17:08.175Z,6.77
2024-01-05T17:19:35.091Z,7.32
2024-01-05T17:22:01.788Z,7.30
2024-01-05T17:24:28.558Z,7.47
2024-01-05T17:26:55.288Z,7.67
2024-01-05T17:29:21.976Z,7.89
2024-01-05T17:31:48.710Z,7.56
2024-01-05T17:34:16.161Z,7.25
2024-01-05T17:36:43.035Z,7.30
2024-01-05T17:39:09.997Z,7.86
2024-01-05T17:41:37.135Z,7.45
2024-01-05T17:44:04.748Z,7.29
2024-01-05T17:46:31.434Z,8.19
2024-01-05T17:48:58.248Z,7.08
2024-01-05T17:51:26.501Z,7.09
2024-01-05T17:54:00.340Z,7.47
2024-01-05T17:56:33.887Z,8.83
2024-01-05T17:59:01.654Z,8.64
2024-01-05T18:01:28.636Z,7.04
2024-01-05T18:03:55.461Z,7.63
2024-01-05T18:06:23.027Z,7.01
2024-01-05T18:08:49.814Z,6.81
2024-01-05T18:11:26.949Z,7.94
2024-01-05T18:13:54.353Z,7.43
2024-01-05T18:16:25.701Z,6.82
2024-01-05T18:18:53.357Z,7.11
2024-01-05T18:21:26.030Z,6.66
2024-01-05T18:23:54.997Z,7.11
2024-01-05T18:26:23.988Z,7.10
2024-01-05T18:28:51.990Z,8.68
2024-01-05T18:31:26.262Z,10.06
2024-01-05T18:33:53.414Z,8.93
2024-01-05T18:36:20.578Z,8.29
2024-01-05T18:38:48.747Z,7.87
2024-01-05T18:41:29.880Z,6.75
2024-01-05T18:43:56.651Z,7.15
2024-01-05T18:46:23.422Z,7.49
2024-01-05T18:48:50.215Z,7.02
2024-01-05T18:51:17.008Z,7.02
2024-01-05T18:53:43.824Z,7.03
2024-01-05T18:56:13.726Z,7.57
2024-01-05T18:58:41.574Z,7.56
2024-01-05T19:01:10.908Z,6.97
2024-01-05T19:03:37.745Z,7.24
2024-01-05T19:06:04.860Z,7.52
2024-01-05T19:08:31.708Z,7.52
2024-01-05T19:10:58.365Z,7.44
2024-01-05T19:13:25.321Z,7.45
2024-01-05T19:15:52.181Z,7.32
2024-01-05T19:18:19.034Z,7.49
2024-01-05T19:20:46.221Z,7.55
2024-01-05T19:23:12.926Z,7.94
2024-01-05T19:25:40.706Z,8.25
2024-01-05T19:28:07.390Z,8.47
2024-01-05T19:30:34.221Z,8.74
2024-01-05T19:33:01.123Z,9.82
2024-01-05T19:35:27.860Z,9.78
2024-01-05T19:37:56.625Z,8.95
2024-01-05T19:40:23.277Z,8.69
2024-01-05T19:42:49.896Z,8.61
2024-01-05T19:45:16.989Z,8.73
2024-01-05T19:47:45.542Z,8.78
2024-01-05T19:50:12.319Z,8.66
2024-01-05T19:52:38.950Z,9.40
2024-01-05T19:55:08.375Z,9.57
2024-01-05T19:57:35.972Z,9.54
2024-01-05T20:00:04.188Z,9.80
2024-01-05T20:02:30.951Z,9.52
2024-01-05T20:04:57.651Z,10.18
2024-01-05T20:07:25.794Z,10.82
2024-01-05T20:09:53.699Z,11.63
2024-01-05T20:12:20.704Z,11.75
2024-01-05T20:14:47.583Z,12.64
2024-01-05T20:17:14.282Z,12.48
2024-01-05T20:19:42.587Z,12.95
2024-01-05T20:22:09.630Z,13.31
2024-01-05T20:24:36.408Z,14.20
2024-01-05T20:27:10.322Z,13.38
2024-01-05T20:29:40.582Z,13.52
2024-01-05T20:32:08.541Z,13.69
2024-01-05T20:34:35.419Z,13.53
2024-01-05T20:37:02.234Z,13.39
2024-01-05T20:39:28.981Z,13.48
2024-01-05T20:41:55.688Z,13.89
2024-01-05T20:44:23.321Z,13.69
2024-01-05T20:46:50.018Z,14.52
2024-01-05T20:49:17.298Z,14.80
2024-01-05T20:51:44.378Z,15.08
2024-01-05T20:54:11.126Z,15.13
2024-01-05T20:56:38.397Z,15.95
2024-01-05T20:59:05.201Z,17.34
2024-01-05T21:01:31.888Z,18.61
2024-01-05T21:03:58.675Z,19.32
2024-01-05T21:06:25.996Z,18.61
2024-01-05T21:08:52.845Z,18.26
2024-01-05T21:11:26.532Z,17.51
2024-01-05T21:13:53.202Z,17.94
2024-01-05T21:16:19.935Z,18.37
2024-01-05T21:18:47.704Z,17.94
2024-01-05T21:21:14.654Z,18.31
2024-01-05T21:23:41.376Z,19.72
2024-01-05T21:26:08.225Z,19.48
2024-01-05T21:28:34.971Z,19.22
2024-01-05T21:31:06.094Z,19.36
2024-01-05T21:33:33.093Z,19.45
2024-01-05T21:35:59.909Z,19.53
2024-01-05T21:38:26.543Z,19.44
2024-01-05T21:40:53.190Z,20.46
2024-01-05T21:43:21.964Z,20.02
2024-01-05T21:45:49.158Z,20.00
2024-01-05T21:48:16.090Z,20.61
2024-01-05T21:50:43.405Z,20.17
2024-01-05T21:53:10.064Z,20.23
2024-01-05T21:55:36.761Z,20.33
2024-01-05T21:58:03.599Z,20.57
2024-01-05T22:00:30.459Z,20.50
2024-01-05T22:02:57.173Z,20.05
2024-01-05T22:05:24.178Z,19.49
2024-01-05T22:07:50.857Z,20.33
2024-01-05T22:10:17.542Z,19.81
2024-01-05T22:12:44.306Z,19.85
2024-01-05T22:15:11.051Z,19.72
2024-01-05T22:17:37.919Z,19.55
2024-01-05T22:20:05.034Z,18.85
2024-01-05T22:22:31.712Z,16.99
2024-01-05T22:24:58.338Z,15.84
2024-01-05T22:27:28.798Z,15.47
2024-01-05T22:29:57.223Z,15.82
2024-01-05T22:32:23.926Z,15.89
2024-01-05T22:34:51.252Z,15.54
2024-01-05T22:37:18.781Z,15.18
2024-01-05T22:39:45.600Z,15.43
2024-01-05T22:42:14.358Z,16.07
2024-01-05T22:44:42.839Z,15.29
2024-01-05T22:47:09.493Z,14.81
2024-01-05T22:49:40.676Z,15.38
2024-01-05T22:52:08.219Z,15.47
2024-01-05T22:54:35.950Z,15.79
2024-01-05T22:57:03.981Z,16.33
2024-01-05T22:59:32.726Z,15.43
2024-01-05T23:02:00.301Z,15.65
2024-01-05T23:04:27.697Z,16.31
2024-01-05T23:06:57.169Z,15.42
2024-01-05T23:09:24.767Z,15.05
2024-01-05T23:11:52.458Z,14.77
2024-01-05T23:14:19.243Z,14.86
2024-01-05T23:16:48.221Z,14.39
2024-01-05T23:19:15.216Z,14.79
2024-01-05T23:21:42.104Z,14.09
2024-01-05T23:24:09.078Z,13.54
2024-01-05T23:26:35.868Z,13.74
2024-01-05T23:29:03.993Z,13.00
2024-01-05T23:31:30.898Z,12.05
2024-01-05T23:34:08.431Z,11.98
2024-01-05T23:36:42.817Z,11.61
2024-01-05T23:39:09.870Z,10.39
2024-01-05T23:41:37.390Z,10.80
2024-01-05T23:44:04.868Z,11.24
2024-01-05T23:46:31.881Z,11.03
2024-01-05T23:48:58.837Z,10.70
2024-01-05T23:51:25.757Z,11.34
2024-01-05T23:53:52.531Z,11.16
2024-01-05T23:56:19.169Z,11.78
2024-01-05T23:58:45.862Z,12.25
